Time,TemperatureF,DewpointF,PressureIn,WindDirection,WindDirectionDegrees,WindSpeedMPH,WindSpeedGustMPH,Humidity,HourlyPrecipIn,Conditions,Clouds,dailyrainin,SoftwareType,DateUTC
2013-03-13 00:03:00,34.0,32.0,29.86,North,0,0.0,-999.0,93,-99.99,,,-99.99,,2013-03-13 04:03:00,
2013-03-13 00:13:00,36.0,30.0,29.87,North,0,0.0,-999.0,80,-99.99,,,-99.99,,2013-03-13 04:13:00,
2013-03-13 00:22:00,36.0,30.0,29.87,North,0,0.0,-999.0,80,-99.99,,,-99.99,,2013-03-13 04:22:00,
2013-03-13 00:32:00,36.0,30.0,29.87,NNW,330,3.0,-999.0,80,-99.99,,,-99.99,,2013-03-13 04:32:00,
2013-03-13 00:43:00,36.0,30.0,29.88,NNW,330,3.0,-999.0,80,-99.99,,,-99.99,,2013-03-13 04:43:00,
2013-03-13 00:52:00,36.0,28.0,29.88,NW,310,3.0,-999.0,74,-99.99,,,-99.99,,2013-03-13 04:52:00,
2013-03-13 01:02:00,36.0,28.0,29.88,NW,310,3.0,-999.0,74,-99.99,,,-99.99,,2013-03-13 05:02:00,
2013-03-13 01:12:00,36.0,28.0,29.88,NW,310,6.0,-999.0,74,-99.99,,,-99.99,,2013-03-13 05:12:00,
2013-03-13 01:22:00,36.0,28.0,29.88,NNW,330,5.0,-999.0,74,-99.99,,,-99.99,,2013-03-13 05:22:00,
2013-03-13 01:32:00,36.0,28.0,29.88,NW,320,5.0,-999.0,74,-99.99,,,-99.99,,2013-03-13 05:32:00,
2013-03-13 01:42:00,36.0,28.0,29.88,NW,310,7.0,-999.0,74,-99.99,,,-99.99,,2013-03-13 05:42:00,
2013-03-13 01:52:00,36.0,28.0,29.87,NW,310,5.0,-999.0,74,-99.99,,,-99.99,,2013-03-13 05:52:00,
2013-03-13 02:02:00,36.0,28.0,29.87,NW,310,5.0,-999.0,74,-99.99,,,-99.99,,2013-03-13 06:02:00,
2013-03-13 02:12:00,36.0,28.0,29.88,WNW,300,5.0,-999.0,74,-99.99,,,-99.99,,2013-03-13 06:12:00,
2013-03-13 02:23:00,36.0,28.0,29.88,NW,320,5.0,-999.0,74,-99.99,,,-99.99,,2013-03-13 06:23:00,
2013-03-13 02:32:00,36.0,28.0,29.87,NW,310,3.0,-999.0,74,-99.99,,,-99.99,,2013-03-13 06:32:00,
2013-03-13 02:42:00,36.0,28.0,29.87,NW,320,3.0,-999.0,74,-99.99,,,-99.99,,2013-03-13 06:42:00,
2013-03-13 02:52:00,36.0,28.0,29.87,NW,320,3.0,-999.0,74,-99.99,,,-99.99,,2013-03-13 06:52:00,
2013-03-13 03:03:00,36.0,28.0,29.87,NW,320,3.0,-999.0,74,-99.99,,,-99.99,,2013-03-13 07:03:00,
2013-03-13 03:12:00,36.0,28.0,29.86,NW,320,5.0,-999.0,74,-99.99,,,-99.99,,2013-03-13 07:12:00,
2013-03-13 03:22:00,36.0,28.0,29.86,NW,320,3.0,-999.0,74,-99.99,,,-99.99,,2013-03-13 07:22:00,
2013-03-13 03:32:00,34.0,28.0,29.86,NW,320,7.0,-999.0,80,-99.99,,,-99.99,,2013-03-13 07:32:00,
2013-03-13 03:42:00,36.0,28.0,29.86,NW,310,5.0,-999.0,74,-99.99,,,-99.99,,2013-03-13 07:42:00,
2013-03-13 03:52:00,34.0,28.0,29.85,NW,320,3.0,-999.0,80,-99.99,,,-99.99,,2013-03-13 07:52:00,
2013-03-13 04:03:00,34.0,28.0,29.85,NW,320,3.0,-999.0,80,-99.99,,,-99.99,,2013-03-13 08:03:00,
2013-03-13 04:12:00,34.0,28.0,29.85,NW,320,5.0,-999.0,80,-99.99,,,-99.99,,2013-03-13 08:12:00,
2013-03-13 04:22:00,34.0,28.0,29.85,NW,320,5.0,-999.0,80,-99.99,,,-99.99,,2013-03-13 08:22:00,
2013-03-13 04:32:00,34.0,28.0,29.85,NW,320,3.0,-999.0,80,-99.99,,,-99.99,,2013-03-13 08:32:00,
2013-03-13 04:43:00,34.0,28.0,29.85,WNW,300,3.0,-999.0,80,-99.99,,,-99.99,,2013-03-13 08:43:00,
2013-03-13 04:53:00,34.0,28.0,29.84,NW,310,5.0,-999.0,80,-99.99,,,-99.99,,2013-03-13 08:53:00,
2013-03-13 05:02:00,34.0,28.0,29.84,NW,310,5.0,-999.0,80,-99.99,,,-99.99,,2013-03-13 09:02:00,
2013-03-13 05:12:00,34.0,27.0,29.84,NW,320,3.0,-999.0,74,-99.99,,,-99.99,,2013-03-13 09:12:00,
2013-03-13 05:22:00,34.0,27.0,29.84,North,0,0.0,-999.0,74,-99.99,,,-99.99,,2013-03-13 09:22:00,
2013-03-13 05:32:00,34.0,27.0,29.84,North,0,0.0,-999.0,74,-99.99,,,-99.99,,2013-03-13 09:32:00,
2013-03-13 05:42:00,34.0,27.0,29.84,North,0,0.0,-999.0,74,-99.99,,,-99.99,,2013-03-13 09:42:00,
2013-03-13 05:52:00,34.0,27.0,29.84,WNW,300,3.0,-999.0,74,-99.99,,,-99.99,,2013-03-13 09:52:00,
2013-03-13 06:02:00,34.0,27.0,29.84,WNW,300,3.0,-999.0,74,-99.99,,,-99.99,,2013-03-13 10:02:00,
2013-03-13 06:12:00,34.0,27.0,29.84,North,0,0.0,-999.0,74,-99.99,,,-99.99,,2013-03-13 10:12:00,
2013-03-13 06:22:00,34.0,27.0,29.84,North,0,0.0,-999.0,74,-99.99,,,-99.99,,2013-03-13 10:22:00,
2013-03-13 06:32:00,34.0,27.0,29.84,NNW,330,5.0,-999.0,74,-99.99,,,-99.99,,2013-03-13 10:32:00,
2013-03-13 06:42:00,34.0,27.0,29.84,NNW,330,3.0,-999.0,74,-99.99,,,-99.99,,2013-03-13 10:42:00,
2013-03-13 06:52:00,34.0,27.0,29.84,North,0,0.0,-999.0,74,-99.99,,,-99.99,,2013-03-13 10:52:00,
2013-03-13 07:02:00,34.0,27.0,29.84,North,0,0.0,-999.0,74,-99.99,,,-99.99,,2013-03-13 11:02:00,
2013-03-13 07:12:00,34.0,27.0,29.84,North,0,0.0,-999.0,74,-99.99,,,-99.99,,2013-03-13 11:12:00,
2013-03-13 07:22:00,34.0,27.0,29.84,North,0,0.0,-999.0,74,-99.99,,,-99.99,,2013-03-13 11:22:00,
2013-03-13 07:32:00,34.0,27.0,29.84,North,0,0.0,-999.0,74,-99.99,,,-99.99,,2013-03-13 11:32:00,
2013-03-13 07:42:00,34.0,27.0,29.83,North,0,0.0,-999.0,74,-99.99,,,-99.99,,2013-03-13 11:42:00,
2013-03-13 07:52:00,34.0,27.0,29.83,North,0,0.0,-999.0,74,-99.99,,,-99.99,,2013-03-13 11:52:00,
2013-03-13 08:02:00,34.0,27.0,29.83,North,0,0.0,-999.0,74,-99.99,,,-99.99,,2013-03-13 12:02:00,
2013-03-13 08:12:00,34.0,27.0,29.83,North,0,0.0,-999.0,74,-99.99,,,-99.99,,2013-03-13 12:12:00,
2013-03-13 08:22:00,34.0,27.0,29.83,North,0,0.0,-999.0,74,-99.99,,,-99.99,,2013-03-13 12:22:00,
2013-03-13 08:32:00,34.0,27.0,29.83,North,0,0.0,-999.0,74,-99.99,,,-99.99,,2013-03-13 12:32:00,
2013-03-13 08:42:00,34.0,27.0,29.83,WNW,290,8.0,-999.0,74,-99.99,,,-99.99,,2013-03-13 12:42:00,
2013-03-13 08:52:00,34.0,25.0,29.83,WNW,290,6.0,-999.0,69,-99.99,,,-99.99,,2013-03-13 12:52:00,
2013-03-13 09:02:00,34.0,25.0,29.83,WNW,290,6.0,-999.0,69,-99.99,,,-99.99,,2013-03-13 13:02:00,
2013-03-13 09:12:00,34.0,23.0,29.84,WNW,300,5.0,-999.0,64,-99.99,,,-99.99,,2013-03-13 13:12:00,
2013-03-13 09:22:00,34.0,21.0,29.83,WNW,300,6.0,-999.0,59,-99.99,,,-99.99,,2013-03-13 13:22:00,
2013-03-13 09:33:00,36.0,21.0,29.84,WNW,300,3.0,-999.0,55,-99.99,,,-99.99,,2013-03-13 13:33:00,
2013-03-13 09:43:00,36.0,21.0,29.84,North,0,0.0,-999.0,55,-99.99,,,-99.99,,2013-03-13 13:43:00,
2013-03-13 09:52:00,36.0,21.0,29.84,West,280,7.0,-999.0,55,-99.99,,,-99.99,,2013-03-13 13:52:00,
2013-03-13 10:02:00,36.0,21.0,29.84,West,280,7.0,-999.0,55,-99.99,,,-99.99,,2013-03-13 14:02:00,
2013-03-13 10:12:00,36.0,21.0,29.84,West,280,7.0,-999.0,55,-99.99,,,-99.99,,2013-03-13 14:12:00,
2013-03-13 10:22:00,36.0,21.0,29.84,WNW,300,5.0,-999.0,55,-99.99,,,-99.99,,2013-03-13 14:22:00,
2013-03-13 10:33:00,36.0,21.0,29.84,WNW,290,5.0,-999.0,55,-99.99,,,-99.99,,2013-03-13 14:33:00,
2013-03-13 10:42:00,36.0,23.0,29.84,WNW,290,6.0,-999.0,59,-99.99,,,-99.99,,2013-03-13 14:42:00,
2013-03-13 10:52:00,36.0,23.0,29.83,WNW,290,7.0,-999.0,59,-99.99,,,-99.99,,2013-03-13 14:52:00,
2013-03-13 11:03:00,36.0,23.0,29.83,WNW,290,7.0,-999.0,59,-99.99,,,-99.99,,2013-03-13 15:03:00,
2013-03-13 11:12:00,36.0,23.0,29.83,WNW,290,6.0,-999.0,59,-99.99,,,-99.99,,2013-03-13 15:12:00,
2013-03-13 11:22:00,37.0,25.0,29.83,NNW,340,6.0,-999.0,60,-99.99,,,-99.99,,2013-03-13 15:22:00,
2013-03-13 11:32:00,36.0,21.0,29.83,North,350,7.0,-999.0,55,-99.99,,,-99.99,,2013-03-13 15:32:00,
2013-03-13 11:42:00,37.0,23.0,29.83,WNW,290,6.0,-999.0,55,-99.99,,,-99.99,,2013-03-13 15:42:00,
2013-03-13 11:52:00,37.0,25.0,29.83,West,280,6.0,-999.0,60,-99.99,,,-99.99,,2013-03-13 15:52:00,
2013-03-13 12:03:00,37.0,25.0,29.83,West,280,6.0,-999.0,60,-99.99,,,-99.99,,2013-03-13 16:03:00,
2013-03-13 12:12:00,39.0,21.0,29.82,WSW,250,3.0,-999.0,48,-99.99,,,-99.99,,2013-03-13 16:12:00,
2013-03-13 12:22:00,37.0,23.0,29.82,NNW,330,6.0,-999.0,55,-99.99,,,-99.99,,2013-03-13 16:22:00,
2013-03-13 12:32:00,37.0,21.0,29.82,NW,320,6.0,-999.0,51,-99.99,,,-99.99,,2013-03-13 16:32:00,
2013-03-13 12:42:00,39.0,23.0,29.82,NNW,340,6.0,-999.0,51,-99.99,,,-99.99,,2013-03-13 16:42:00,
2013-03-13 12:52:00,39.0,23.0,29.81,NW,320,3.0,-999.0,51,-99.99,,,-99.99,,2013-03-13 16:52:00,
2013-03-13 13:03:00,39.0,23.0,29.81,NW,320,3.0,-999.0,51,-99.99,,,-99.99,,2013-03-13 17:03:00,
2013-03-13 13:12:00,41.0,23.0,29.81,NNW,330,7.0,-999.0,48,-99.99,,,-99.99,,2013-03-13 17:12:00,
2013-03-13 13:22:00,39.0,25.0,29.81,West,270,9.0,-999.0,55,-99.99,,,-99.99,,2013-03-13 17:22:00,
2013-03-13 13:32:00,39.0,23.0,29.81,WNW,300,7.0,-999.0,51,-99.99,,,-99.99,,2013-03-13 17:32:00,
2013-03-13 13:42:00,39.0,25.0,29.81,West,260,7.0,-999.0,55,-99.99,,,-99.99,,2013-03-13 17:42:00,
2013-03-13 13:53:00,39.0,23.0,29.80,West,270,6.0,-999.0,51,-99.99,,,-99.99,,2013-03-13 17:53:00,
2013-03-13 14:02:00,39.0,23.0,29.80,West,270,6.0,-999.0,51,-99.99,,,-99.99,,2013-03-13 18:02:00,
2013-03-13 14:12:00,39.0,23.0,29.79,NW,310,6.0,-999.0,51,-99.99,,,-99.99,,2013-03-13 18:12:00,
2013-03-13 14:22:00,39.0,25.0,29.79,WSW,240,7.0,-999.0,55,-99.99,,,-99.99,,2013-03-13 18:22:00,
2013-03-13 14:33:00,39.0,25.0,29.78,WSW,240,5.0,-999.0,55,-99.99,,,-99.99,,2013-03-13 18:33:00,
2013-03-13 14:42:00,39.0,25.0,29.78,North,0,0.0,-999.0,55,-99.99,,,-99.99,,2013-03-13 18:42:00,
2013-03-13 14:52:00,39.0,23.0,29.78,West,270,5.0,-999.0,51,-99.99,,,-99.99,,2013-03-13 18:52:00,
2013-03-13 15:02:00,39.0,23.0,29.78,West,270,5.0,-999.0,51,-99.99,,,-99.99,,2013-03-13 19:02:00,
2013-03-13 15:12:00,39.0,21.0,29.78,West,280,9.0,-999.0,48,-99.99,,,-99.99,,2013-03-13 19:12:00,
2013-03-13 15:22:00,41.0,25.0,29.77,WNW,300,7.0,-999.0,52,-99.99,,,-99.99,,2013-03-13 19:22:00,
2013-03-13 15:32:00,39.0,21.0,29.77,West,280,9.0,-999.0,48,-99.99,,,-99.99,,2013-03-13 19:32:00,
2013-03-13 15:43:00,39.0,21.0,29.78,West,280,10.0,17.0,48,-99.99,,,-99.99,,2013-03-13 19:43:00,
2013-03-13 15:52:00,37.0,28.0,29.78,WNW,300,8.0,18.0,69,-99.99,,,-99.99,,2013-03-13 19:52:00,
2013-03-13 16:02:00,37.0,28.0,29.78,WNW,300,8.0,18.0,69,-99.99,,,-99.99,,2013-03-13 20:02:00,
2013-03-13 16:12:00,39.0,28.0,29.78,WNW,300,6.0,-999.0,64,-99.99,,,-99.99,,2013-03-13 20:12:00,
2013-03-13 16:22:00,37.0,28.0,29.78,NNW,330,7.0,-999.0,69,-99.99,,,-99.99,,2013-03-13 20:22:00,
2013-03-13 16:32:00,37.0,28.0,29.78,NW,310,5.0,-999.0,69,-99.99,,,-99.99,,2013-03-13 20:32:00,
2013-03-13 16:42:00,39.0,28.0,29.78,West,280,5.0,-999.0,64,-99.99,,,-99.99,,2013-03-13 20:42:00,
2013-03-13 16:52:00,39.0,27.0,29.78,West,260,5.0,-999.0,60,-99.99,,,-99.99,,2013-03-13 20:52:00,
2013-03-13 17:02:00,39.0,27.0,29.78,West,260,5.0,-999.0,60,-99.99,,,-99.99,,2013-03-13 21:02:00,
2013-03-13 17:12:00,39.0,27.0,29.78,WSW,250,7.0,-999.0,60,-99.99,,,-99.99,,2013-03-13 21:12:00,
2013-03-13 17:22:00,37.0,25.0,29.78,WNW,300,5.0,-999.0,60,-99.99,,,-99.99,,2013-03-13 21:22:00,
2013-03-13 17:33:00,37.0,25.0,29.79,NW,310,8.0,-999.0,60,-99.99,,,-99.99,,2013-03-13 21:33:00,
2013-03-13 17:42:00,37.0,27.0,29.80,NW,320,14.0,20.0,64,-99.99,,,-99.99,,2013-03-13 21:42:00,
2013-03-13 17:52:00,34.0,28.0,29.81,WNW,290,8.0,20.0,80,-99.99,,,-99.99,,2013-03-13 21:52:00,
2013-03-13 18:02:00,34.0,28.0,29.81,WNW,290,8.0,20.0,80,-99.99,,,-99.99,,2013-03-13 22:02:00,
2013-03-13 18:12:00,34.0,28.0,29.81,WNW,300,7.0,-999.0,80,-99.99,,,-99.99,,2013-03-13 22:12:00,
2013-03-13 18:22:00,34.0,27.0,29.81,WNW,290,7.0,16.0,74,-99.99,,,-99.99,,2013-03-13 22:22:00,
2013-03-13 18:32:00,34.0,27.0,29.81,WNW,300,6.0,-999.0,74,-99.99,,,-99.99,,2013-03-13 22:32:00,
2013-03-13 18:42:00,34.0,27.0,29.81,WNW,300,6.0,-999.0,74,-99.99,,,-99.99,,2013-03-13 22:42:00,
2013-03-13 18:52:00,34.0,27.0,29.81,NW,310,8.0,-999.0,74,-99.99,,,-99.99,,2013-03-13 22:52:00,
2013-03-13 19:02:00,34.0,27.0,29.81,NW,310,8.0,-999.0,74,-99.99,,,-99.99,,2013-03-13 23:02:00,
2013-03-13 19:12:00,34.0,27.0,29.81,NW,310,7.0,16.0,74,-99.99,,,-99.99,,2013-03-13 23:12:00,
2013-03-13 19:22:00,34.0,27.0,29.81,WNW,300,6.0,-999.0,74,-99.99,,,-99.99,,2013-03-13 23:22:00,
2013-03-13 19:32:00,34.0,25.0,29.81,WNW,300,6.0,-999.0,69,-99.99,,,-99.99,,2013-03-13 23:32:00,
2013-03-13 19:42:00,34.0,25.0,29.81,NW,310,7.0,-999.0,69,-99.99,,,-99.99,,2013-03-13 23:42:00,
2013-03-13 19:52:00,34.0,21.0,29.82,WNW,300,8.0,16.0,59,-99.99,,,-99.99,,2013-03-13 23:52:00,
2013-03-13 20:02:00,34.0,21.0,29.82,WNW,300,8.0,16.0,59,-99.99,,,-99.99,,2013-03-14 00:02:00,
2013-03-13 20:12:00,34.0,21.0,29.82,WNW,290,9.0,-999.0,59,-99.99,,,-99.99,,2013-03-14 00:12:00,
2013-03-13 20:22:00,34.0,19.0,29.83,NW,310,7.0,17.0,55,-99.99,,,-99.99,,2013-03-14 00:22:00,
2013-03-13 20:32:00,34.0,19.0,29.83,NW,320,14.0,18.0,55,-99.99,,,-99.99,,2013-03-14 00:32:00,
2013-03-13 20:42:00,34.0,18.0,29.83,NW,320,12.0,21.0,51,-99.99,,,-99.99,,2013-03-14 00:42:00,
2013-03-13 20:52:00,34.0,18.0,29.83,WNW,300,7.0,18.0,51,-99.99,,,-99.99,,2013-03-14 00:52:00,
2013-03-13 21:02:00,34.0,18.0,29.83,WNW,300,7.0,18.0,51,-99.99,,,-99.99,,2013-03-14 01:02:00,
2013-03-13 21:12:00,32.0,19.0,29.84,WNW,300,12.0,18.0,59,-99.99,,,-99.99,,2013-03-14 01:12:00,
2013-03-13 21:22:00,32.0,19.0,29.84,NW,310,12.0,16.0,59,-99.99,,,-99.99,,2013-03-14 01:22:00,
2013-03-13 21:32:00,30.0,21.0,29.85,West,280,15.0,24.0,68,-99.99,,,-99.99,,2013-03-14 01:32:00,
2013-03-13 21:42:00,30.0,23.0,29.85,WNW,290,13.0,24.0,74,-99.99,,,-99.99,,2013-03-14 01:42:00,
2013-03-13 21:52:00,30.0,23.0,29.85,WNW,290,7.0,10.0,74,-99.99,,,-99.99,,2013-03-14 01:52:00,
2013-03-13 22:02:00,30.0,23.0,29.85,WNW,290,9.0,-999.0,74,-99.99,,,-99.99,,2013-03-14 02:02:00,
2013-03-13 22:12:00,30.0,19.0,29.85,WNW,290,7.0,-999.0,63,-99.99,,,-99.99,,2013-03-14 02:12:00,
2013-03-13 22:22:00,30.0,18.0,29.85,WNW,290,13.0,22.0,59,-99.99,,,-99.99,,2013-03-14 02:22:00,
2013-03-13 22:32:00,30.0,16.0,29.85,WNW,300,9.0,23.0,54,-99.99,,,-99.99,,2013-03-14 02:32:00,
2013-03-13 22:42:00,30.0,16.0,29.85,WNW,300,9.0,23.0,54,-99.99,,,-99.99,,2013-03-14 02:42:00,
2013-03-13 22:51:00,30.0,16.0,29.85,WNW,300,9.0,23.0,54,-99.99,,,-99.99,,2013-03-14 02:51:00,
2013-03-13 23:02:00,30.0,16.0,29.85,WNW,290,10.0,21.0,54,-99.99,,,-99.99,,2013-03-14 03:02:00,
2013-03-13 23:12:00,28.0,14.0,29.85,West,280,9.0,20.0,54,-99.99,,,-99.99,,2013-03-14 03:12:00,
2013-03-13 23:23:00,28.0,14.0,29.85,NW,310,12.0,20.0,54,-99.99,,,-99.99,,2013-03-14 03:23:00,
2013-03-13 23:32:00,28.0,14.0,29.85,West,280,12.0,20.0,54,-99.99,,,-99.99,,2013-03-14 03:32:00,
2013-03-13 23:42:00,28.0,14.0,29.85,WNW,300,8.0,20.0,54,-99.99,,,-99.99,,2013-03-14 03:42:00,
2013-03-13 23:52:00,28.0,16.0,29.85,West,270,9.0,-999.0,58,-99.99,,,-99.99,,2013-03-14 03:52:00,